CheckWX is a tool to help pilots better visualize weather data.  It is not intended as a substitute for an official pre-flight weather briefing.

21:04:44 UTC

KIKG METAR
Kleberg County Airport
Kingsville, Texas, USA
Current

30 mins ago

KIKG 232035Z AUTO 10014KT 10SM SCT031 BKN050 OVC070 27/22 A2991 RMK AO2 T02740216
Observed
Apr-23 @ 20:35 UTC
Wind
  • 100° at 14 KTS
Visibility
10 SM
Flight Rules
VFR
Cloud Levels
  • Scattered at 3,100' AGL
  • Broken at 5,000' AGL
  • Overcast at 7,000' AGL
Temperature
27°C / 81°F
Dewpoint
22°C / 72°F
Heat Index
29°C / 85°F
Humidity
74%
Altimeter
29.91" Hg
Pressure
1012.92 hPa
Previous

50 mins ago

KIKG 232015Z AUTO 11017G21KT 10SM SCT027 SCT050 BKN070 27/21 A2991 RMK AO2 T02730212
Observed
Apr-23 @ 20:15 UTC
Wind
  • 110° at 17 KTS
  • Gusting to 21 KTS
Visibility
10 SM
Flight Rules
VFR
Cloud Levels
  • Scattered at 2,700' AGL
  • Scattered at 5,000' AGL
  • Broken at 7,000' AGL
Temperature
27°C / 81°F
Dewpoint
21°C / 70°F
Heat Index
29°C / 85°F
Humidity
70%
Altimeter
29.91" Hg
Pressure
1012.92 hPa
Previous

1 hour ago

KIKG 231955Z AUTO 11019G22KT 10SM SCT027 BKN055 OVC065 27/22 A2991 RMK AO2 T02720217
Observed
Apr-23 @ 19:55 UTC
Wind
  • 110° at 19 KTS
  • Gusting to 22 KTS
Visibility
10 SM
Flight Rules
VFR
Cloud Levels
  • Scattered at 2,700' AGL
  • Broken at 5,500' AGL
  • Overcast at 6,500' AGL
Temperature
27°C / 81°F
Dewpoint
22°C / 72°F
Heat Index
29°C / 85°F
Humidity
74%
Altimeter
29.91" Hg
Pressure
1012.92 hPa